sensor_id;sensor_type;location;lat;lon;timestamp;pressure;altitude;pressure_sealevel;temperature;humidity
64610;BME280;51019;46.090;6.350;2022-10-15T00:01:19;96611.84;;;13.65;100.00
64610;BME280;51019;46.090;6.350;2022-10-15T00:03:51;96619.69;;;13.57;100.00
64610;BME280;51019;46.090;6.350;2022-10-15T00:06:20;96630.28;;;13.65;100.00
64610;BME280;51019;46.090;6.350;2022-10-15T00:08:49;96630.59;;;13.70;100.00
64610;BME280;51019;46.090;6.350;2022-10-15T00:11:20;96616.78;;;13.68;100.00
64610;BME280;51019;46.090;6.350;2022-10-15T00:13:49;96613.53;;;13.82;100.00
64610;BME280;51019;46.090;6.350;2022-10-15T00:16:19;96550.00;;;13.35;100.00
64610;BME280;51019;46.090;6.350;2022-10-15T00:18:51;96606.88;;;13.62;100.00
64610;BME280;51019;46.090;6.350;2022-10-15T00:21:24;96609.81;;;13.59;100.00
64610;BME280;51019;46.090;6.350;2022-10-15T00:23:52;96581.31;;;13.47;100.00
64610;BME280;51019;46.090;6.350;2022-10-15T00:26:23;96606.38;;;13.67;100.00
64610;BME280;51019;46.090;6.350;2022-10-15T00:28:53;96611.78;;;13.57;100.00
64610;BME280;51019;46.090;6.350;2022-10-15T00:31:21;96606.19;;;13.52;100.00
64610;BME280;51019;46.090;6.350;2022-10-15T00:33:49;96604.53;;;13.51;100.00
64610;BME280;51019;46.090;6.350;2022-10-15T00:36:20;96604.56;;;13.59;100.00
64610;BME280;51019;46.090;6.350;2022-10-15T00:38:50;96602.94;;;13.66;100.00
64610;BME280;51019;46.090;6.350;2022-10-15T00:41:22;96585.16;;;13.60;100.00
64610;BME280;51019;46.090;6.350;2022-10-15T00:43:52;96604.94;;;13.72;100.00
64610;BME280;51019;46.090;6.350;2022-10-15T00:46:23;96609.53;;;13.70;100.00
64610;BME280;51019;46.090;6.350;2022-10-15T00:48:54;96590.56;;;13.59;100.00
64610;BME280;51019;46.090;6.350;2022-10-15T00:51:30;96600.28;;;13.58;100.00
64610;BME280;51019;46.090;6.350;2022-10-15T00:53:59;96606.22;;;13.68;100.00
64610;BME280;51019;46.090;6.350;2022-10-15T00:56:34;96603.16;;;13.81;100.00
64610;BME280;51019;46.090;6.350;2022-10-15T00:59:05;96589.59;;;13.68;100.00
64610;BME280;51019;46.090;6.350;2022-10-15T01:01:35;96587.41;;;13.47;100.00
64610;BME280;51019;46.090;6.350;2022-10-15T01:04:05;96598.19;;;13.28;100.00
64610;BME280;51019;46.090;6.350;2022-10-15T01:06:35;96589.47;;;13.27;100.00
64610;BME280;51019;46.090;6.350;2022-10-15T01:09:08;96587.25;;;13.49;100.00
64610;BME280;51019;46.090;6.350;2022-10-15T01:11:41;96573.41;;;13.13;100.00
64610;BME280;51019;46.090;6.350;2022-10-15T01:14:22;96596.66;;;13.17;100.00
64610;BME280;51019;46.090;6.350;2022-10-15T01:16:56;96583.19;;;12.94;100.00
64610;BME280;51019;46.090;6.350;2022-10-15T01:19:36;96589.06;;;13.14;100.00
64610;BME280;51019;46.090;6.350;2022-10-15T01:22:16;96574.47;;;13.20;100.00
64610;BME280;51019;46.090;6.350;2022-10-15T01:25:00;96544.84;;;12.92;100.00
64610;BME280;51019;46.090;6.350;2022-10-15T01:27:37;96556.09;;;12.76;100.00
64610;BME280;51019;46.090;6.350;2022-10-15T01:30:20;96557.16;;;12.83;100.00
64610;BME280;51019;46.090;6.350;2022-10-15T01:32:57;96574.47;;;12.94;100.00
64610;BME280;51019;46.090;6.350;2022-10-15T01:35:32;96564.47;;;12.97;100.00
64610;BME280;51019;46.090;6.350;2022-10-15T01:38:08;96550.41;;;12.89;100.00
64610;BME280;51019;46.090;6.350;2022-10-15T01:40:43;96553.31;;;13.03;100.00
64610;BME280;51019;46.090;6.350;2022-10-15T01:43:15;96556.44;;;12.73;100.00
64610;BME280;51019;46.090;6.350;2022-10-15T01:45:53;96550.66;;;12.69;100.00
64610;BME280;51019;46.090;6.350;2022-10-15T01:48:28;96552.16;;;12.72;100.00
64610;BME280;51019;46.090;6.350;2022-10-15T01:51:05;96538.59;;;12.85;100.00
64610;BME280;51019;46.090;6.350;2022-10-15T01:53:35;96462.31;;;12.25;100.00
64610;BME280;51019;46.090;6.350;2022-10-15T01:56:07;96533.84;;;12.62;100.00
64610;BME280;51019;46.090;6.350;2022-10-15T01:58:38;96529.16;;;12.48;100.00
64610;BME280;51019;46.090;6.350;2022-10-15T02:01:10;96526.41;;;12.32;100.00
64610;BME280;51019;46.090;6.350;2022-10-15T02:03:45;96537.28;;;12.37;100.00
64610;BME280;51019;46.090;6.350;2022-10-15T02:06:22;96523.31;;;12.36;100.00
64610;BME280;51019;46.090;6.350;2022-10-15T02:09:06;96533.72;;;12.46;100.00
64610;BME280;51019;46.090;6.350;2022-10-15T02:11:49;96521.81;;;12.34;100.00
64610;BME280;51019;46.090;6.350;2022-10-15T02:14:26;96477.69;;;11.94;100.00
64610;BME280;51019;46.090;6.350;2022-10-15T02:17:05;96509.25;;;12.02;100.00
64610;BME280;51019;46.090;6.350;2022-10-15T02:19:41;96516.28;;;12.19;100.00
64610;BME280;51019;46.090;6.350;2022-10-15T02:22:13;96504.25;;;12.34;100.00
64610;BME280;51019;46.090;6.350;2022-10-15T02:24:48;96506.53;;;12.29;100.00
64610;BME280;51019;46.090;6.350;2022-10-15T02:27:19;96447.41;;;12.08;100.00
64610;BME280;51019;46.090;6.350;2022-10-15T02:29:48;96512.47;;;12.65;100.00
64610;BME280;51019;46.090;6.350;2022-10-15T02:32:21;96507.63;;;12.79;100.00
64610;BME280;51019;46.090;6.350;2022-10-15T02:34:56;96519.50;;;12.83;100.00
64610;BME280;51019;46.090;6.350;2022-10-15T02:37:26;96520.34;;;12.91;100.00
64610;BME280;51019;46.090;6.350;2022-10-15T02:40:09;96525.22;;;12.78;100.00
64610;BME280;51019;46.090;6.350;2022-10-15T02:42:37;96527.38;;;12.83;100.00
64610;BME280;51019;46.090;6.350;2022-10-15T02:45:06;96532.91;;;12.71;100.00
64610;BME280;51019;46.090;6.350;2022-10-15T02:47:35;96536.00;;;12.67;100.00
64610;BME280;51019;46.090;6.350;2022-10-15T02:50:03;96519.81;;;12.54;100.00
64610;BME280;51019;46.090;6.350;2022-10-15T02:52:31;96519.91;;;12.70;100.00
64610;BME280;51019;46.090;6.350;2022-10-15T02:55:01;96522.91;;;12.49;100.00
64610;BME280;51019;46.090;6.350;2022-10-15T02:57:29;96531.47;;;12.51;100.00
64610;BME280;51019;46.090;6.350;2022-10-15T02:59:57;96523.63;;;12.33;100.00
64610;BME280;51019;46.090;6.350;2022-10-15T03:02:27;96505.03;;;12.27;100.00
64610;BME280;51019;46.090;6.350;2022-10-15T03:04:57;96516.59;;;12.16;100.00
64610;BME280;51019;46.090;6.350;2022-10-15T03:07:25;96504.25;;;12.34;100.00
64610;BME280;51019;46.090;6.350;2022-10-15T03:09:57;96503.81;;;12.21;100.00
64610;BME280;51019;46.090;6.350;2022-10-15T03:12:28;96503.97;;;12.20;100.00
64610;BME280;51019;46.090;6.350;2022-10-15T03:14:56;96499.75;;;11.83;100.00
64610;BME280;51019;46.090;6.350;2022-10-15T03:17:25;96486.97;;;11.88;100.00
64610;BME280;51019;46.090;6.350;2022-10-15T03:19:52;96483.63;;;11.78;100.00
64610;BME280;51019;46.090;6.350;2022-10-15T03:22:22;96468.75;;;11.87;100.00
64610;BME280;51019;46.090;6.350;2022-10-15T03:24:50;96490.44;;;11.89;100.00
64610;BME280;51019;46.090;6.350;2022-10-15T03:27:17;96473.03;;;11.70;100.00
64610;BME280;51019;46.090;6.350;2022-10-15T03:29:47;96462.47;;;11.80;100.00
64610;BME280;51019;46.090;6.350;2022-10-15T03:32:15;96479.53;;;12.02;100.00
64610;BME280;51019;46.090;6.350;2022-10-15T03:34:43;96488.63;;;11.89;100.00
64610;BME280;51019;46.090;6.350;2022-10-15T03:37:14;96476.53;;;11.96;100.00
64610;BME280;51019;46.090;6.350;2022-10-15T03:39:45;96478.84;;;12.17;100.00
64610;BME280;51019;46.090;6.350;2022-10-15T03:42:15;96468.34;;;12.17;100.00
64610;BME280;51019;46.090;6.350;2022-10-15T03:44:46;96456.19;;;11.98;100.00
64610;BME280;51019;46.090;6.350;2022-10-15T03:47:15;96472.72;;;11.91;100.00
64610;BME280;51019;46.090;6.350;2022-10-15T03:49:43;96468.97;;;11.93;100.00
64610;BME280;51019;46.090;6.350;2022-10-15T03:52:15;96470.19;;;11.81;100.00
64610;BME280;51019;46.090;6.350;2022-10-15T03:54:46;96476.56;;;11.79;100.00
64610;BME280;51019;46.090;6.350;2022-10-15T03:57:13;96471.72;;;11.74;100.00
64610;BME280;51019;46.090;6.350;2022-10-15T03:59:41;96447.81;;;11.59;100.00
64610;BME280;51019;46.090;6.350;2022-10-15T04:02:12;96466.50;;;11.56;100.00
64610;BME280;51019;46.090;6.350;2022-10-15T04:04:40;96474.66;;;11.53;100.00
64610;BME280;51019;46.090;6.350;2022-10-15T04:07:08;96469.41;;;11.53;100.00
64610;BME280;51019;46.090;6.350;2022-10-15T04:09:41;96467.53;;;11.63;100.00
64610;BME280;51019;46.090;6.350;2022-10-15T04:12:10;96476.16;;;11.56;100.00
64610;BME280;51019;46.090;6.350;2022-10-15T04:14:39;96469.34;;;11.45;100.00
64610;BME280;51019;46.090;6.350;2022-10-15T04:17:08;96467.97;;;11.41;100.00
64610;BME280;51019;46.090;6.350;2022-10-15T04:19:37;96465.53;;;11.40;100.00
64610;BME280;51019;46.090;6.350;2022-10-15T04:22:07;96470.25;;;11.36;100.00
64610;BME280;51019;46.090;6.350;2022-10-15T04:24:34;96471.88;;;11.37;100.00
64610;BME280;51019;46.090;6.350;2022-10-15T04:27:03;96464.22;;;11.26;100.00
64610;BME280;51019;46.090;6.350;2022-10-15T04:29:43;96485.44;;;11.33;100.00
64610;BME280;51019;46.090;6.350;2022-10-15T04:32:14;96488.19;;;11.13;100.00
64610;BME280;51019;46.090;6.350;2022-10-15T04:34:47;96477.97;;;11.10;100.00
64610;BME280;51019;46.090;6.350;2022-10-15T04:37:17;96478.28;;;11.07;100.00
64610;BME280;51019;46.090;6.350;2022-10-15T04:39:46;96488.97;;;11.23;100.00
64610;BME280;51019;46.090;6.350;2022-10-15T04:42:14;96501.69;;;11.18;100.00
64610;BME280;51019;46.090;6.350;2022-10-15T04:44:43;96490.47;;;11.26;100.00
64610;BME280;51019;46.090;6.350;2022-10-15T04:47:11;96490.47;;;11.26;100.00
64610;BME280;51019;46.090;6.350;2022-10-15T04:49:41;96487.16;;;11.24;100.00
64610;BME280;51019;46.090;6.350;2022-10-15T04:52:11;96492.97;;;11.45;100.00
64610;BME280;51019;46.090;6.350;2022-10-15T04:54:41;96500.53;;;11.48;100.00
64610;BME280;51019;46.090;6.350;2022-10-15T04:57:12;96502.25;;;11.57;100.00
64610;BME280;51019;46.090;6.350;2022-10-15T04:59:43;96501.34;;;11.67;100.00
64610;BME280;51019;46.090;6.350;2022-10-15T05:02:11;96499.56;;;11.49;100.00
64610;BME280;51019;46.090;6.350;2022-10-15T05:04:44;96488.38;;;11.47;100.00
64610;BME280;51019;46.090;6.350;2022-10-15T05:07:14;96483.22;;;11.38;100.00
64610;BME280;51019;46.090;6.350;2022-10-15T05:09:42;96485.59;;;11.31;100.00
64610;BME280;51019;46.090;6.350;2022-10-15T05:12:10;96478.53;;;11.32;100.00
64610;BME280;51019;46.090;6.350;2022-10-15T05:14:41;96494.22;;;11.41;100.00
64610;BME280;51019;46.090;6.350;2022-10-15T05:17:10;96506.75;;;11.65;100.00
64610;BME280;51019;46.090;6.350;2022-10-15T05:19:39;96497.44;;;11.53;100.00
64610;BME280;51019;46.090;6.350;2022-10-15T05:22:07;96500.63;;;11.56;100.00
64610;BME280;51019;46.090;6.350;2022-10-15T05:24:35;96495.97;;;11.50;100.00
64610;BME280;51019;46.090;6.350;2022-10-15T05:27:03;96478.72;;;11.48;100.00
64610;BME280;51019;46.090;6.350;2022-10-15T05:29:32;96442.16;;;11.19;100.00
64610;BME280;51019;46.090;6.350;2022-10-15T05:32:03;96486.31;;;11.51;100.00
64610;BME280;51019;46.090;6.350;2022-10-15T05:34:41;96492.38;;;11.69;100.00
64610;BME280;51019;46.090;6.350;2022-10-15T05:37:09;96506.41;;;11.78;100.00
64610;BME280;51019;46.090;6.350;2022-10-15T05:39:36;96510.91;;;11.85;100.00
64610;BME280;51019;46.090;6.350;2022-10-15T05:42:04;96507.28;;;11.69;100.00
64610;BME280;51019;46.090;6.350;2022-10-15T05:44:34;96488.97;;;11.41;100.00
64610;BME280;51019;46.090;6.350;2022-10-15T05:47:03;96497.22;;;11.46;100.00
64610;BME280;51019;46.090;6.350;2022-10-15T05:49:38;96504.56;;;11.43;100.00
64610;BME280;51019;46.090;6.350;2022-10-15T05:52:09;96513.75;;;11.29;100.00
64610;BME280;51019;46.090;6.350;2022-10-15T05:54:37;96512.53;;;11.51;100.00
64610;BME280;51019;46.090;6.350;2022-10-15T05:57:06;96506.28;;;11.52;100.00
64610;BME280;51019;46.090;6.350;2022-10-15T05:59:36;96504.28;;;11.63;100.00
64610;BME280;51019;46.090;6.350;2022-10-15T06:02:07;96507.38;;;11.59;100.00
64610;BME280;51019;46.090;6.350;2022-10-15T06:04:40;96511.09;;;11.74;100.00
64610;BME280;51019;46.090;6.350;2022-10-15T06:07:10;96505.78;;;11.66;100.00
64610;BME280;51019;46.090;6.350;2022-10-15T06:09:37;96520.22;;;11.80;100.00
64610;BME280;51019;46.090;6.350;2022-10-15T06:12:08;96510.84;;;11.77;100.00
64610;BME280;51019;46.090;6.350;2022-10-15T06:14:36;96519.56;;;11.95;100.00
64610;BME280;51019;46.090;6.350;2022-10-15T06:17:05;96488.88;;;11.78;100.00
64610;BME280;51019;46.090;6.350;2022-10-15T06:19:35;96517.19;;;11.75;100.00
64610;BME280;51019;46.090;6.350;2022-10-15T06:22:03;96514.97;;;11.80;100.00
64610;BME280;51019;46.090;6.350;2022-10-15T06:24:35;96517.25;;;11.65;100.00
64610;BME280;51019;46.090;6.350;2022-10-15T06:27:05;96499.50;;;11.59;100.00
64610;BME280;51019;46.090;6.350;2022-10-15T06:29:34;96531.56;;;11.80;100.00
64610;BME280;51019;46.090;6.350;2022-10-15T06:32:01;96534.41;;;11.87;100.00
64610;BME280;51019;46.090;6.350;2022-10-15T06:34:29;96524.22;;;11.84;100.00
64610;BME280;51019;46.090;6.350;2022-10-15T06:37:02;96535.38;;;11.86;100.00
64610;BME280;51019;46.090;6.350;2022-10-15T06:39:34;96526.53;;;11.87;100.00
64610;BME280;51019;46.090;6.350;2022-10-15T06:42:02;96526.88;;;12.10;100.00
64610;BME280;51019;46.090;6.350;2022-10-15T06:44:30;96511.34;;;12.16;100.00
64610;BME280;51019;46.090;6.350;2022-10-15T06:47:10;96520.50;;;12.12;100.00
64610;BME280;51019;46.090;6.350;2022-10-15T06:49:44;96538.50;;;12.25;100.00
64610;BME280;51019;46.090;6.350;2022-10-15T06:52:14;96546.78;;;12.12;100.00
64610;BME280;51019;46.090;6.350;2022-10-15T06:54:43;96536.88;;;12.06;100.00
64610;BME280;51019;46.090;6.350;2022-10-15T06:57:11;96538.22;;;12.28;100.00
64610;BME280;51019;46.090;6.350;2022-10-15T06:59:40;96551.41;;;12.36;100.00
64610;BME280;51019;46.090;6.350;2022-10-15T07:02:08;96552.66;;;12.32;100.00
64610;BME280;51019;46.090;6.350;2022-10-15T07:04:38;96553.50;;;12.32;100.00
64610;BME280;51019;46.090;6.350;2022-10-15T07:07:06;96557.75;;;12.51;100.00
64610;BME280;51019;46.090;6.350;2022-10-15T07:09:36;96560.00;;;12.46;100.00
64610;BME280;51019;46.090;6.350;2022-10-15T07:12:06;96551.31;;;12.46;100.00
64610;BME280;51019;46.090;6.350;2022-10-15T07:14:35;96534.13;;;12.33;100.00
64610;BME280;51019;46.090;6.350;2022-10-15T07:17:03;96550.78;;;12.68;100.00
64610;BME280;51019;46.090;6.350;2022-10-15T07:19:33;96534.16;;;12.59;100.00
64610;BME280;51019;46.090;6.350;2022-10-15T07:22:03;96550.28;;;12.64;100.00
64610;BME280;51019;46.090;6.350;2022-10-15T07:24:32;96552.81;;;12.74;100.00
64610;BME280;51019;46.090;6.350;2022-10-15T07:27:02;96551.22;;;12.81;100.00
64610;BME280;51019;46.090;6.350;2022-10-15T07:29:32;96517.75;;;12.65;100.00
64610;BME280;51019;46.090;6.350;2022-10-15T07:31:59;96550.16;;;13.00;100.00
64610;BME280;51019;46.090;6.350;2022-10-15T07:34:29;96480.31;;;12.71;100.00
64610;BME280;51019;46.090;6.350;2022-10-15T07:36:57;96521.16;;;13.18;100.00
64610;BME280;51019;46.090;6.350;2022-10-15T07:39:24;96487.41;;;12.79;100.00
64610;BME280;51019;46.090;6.350;2022-10-15T07:41:52;96539.31;;;13.29;100.00
64610;BME280;51019;46.090;6.350;2022-10-15T07:44:19;96459.06;;;12.65;100.00
64610;BME280;51019;46.090;6.350;2022-10-15T07:46:49;96537.94;;;13.17;100.00
64610;BME280;51019;46.090;6.350;2022-10-15T07:49:17;96543.88;;;13.19;100.00
64610;BME280;51019;46.090;6.350;2022-10-15T07:51:44;96552.25;;;13.22;100.00
64610;BME280;51019;46.090;6.350;2022-10-15T07:54:13;96533.38;;;13.01;100.00
64610;BME280;51019;46.090;6.350;2022-10-15T07:56:41;96547.63;;;13.16;100.00
64610;BME280;51019;46.090;6.350;2022-10-15T07:59:09;96549.50;;;13.32;100.00
64610;BME280;51019;46.090;6.350;2022-10-15T08:01:39;96520.53;;;13.32;100.00
64610;BME280;51019;46.090;6.350;2022-10-15T08:04:14;96537.06;;;13.42;100.00
64610;BME280;51019;46.090;6.350;2022-10-15T08:06:48;96556.09;;;13.36;100.00
64610;BME280;51019;46.090;6.350;2022-10-15T08:09:16;96543.91;;;13.27;100.00
64610;BME280;51019;46.090;6.350;2022-10-15T08:11:43;96497.19;;;12.95;100.00
64610;BME280;51019;46.090;6.350;2022-10-15T08:14:12;96554.81;;;13.40;100.00
64610;BME280;51019;46.090;6.350;2022-10-15T08:16:48;96553.53;;;13.52;100.00
64610;BME280;51019;46.090;6.350;2022-10-15T08:19:20;96556.56;;;13.90;100.00
64610;BME280;51019;46.090;6.350;2022-10-15T08:21:48;96549.19;;;14.09;100.00
64610;BME280;51019;46.090;6.350;2022-10-15T08:24:16;96491.31;;;13.51;100.00
64610;BME280;51019;46.090;6.350;2022-10-15T08:26:43;96569.50;;;14.41;100.00
64610;BME280;51019;46.090;6.350;2022-10-15T08:29:13;96571.78;;;14.61;100.00
64610;BME280;51019;46.090;6.350;2022-10-15T08:31:41;96578.34;;;14.24;100.00
64610;BME280;51019;46.090;6.350;2022-10-15T08:34:10;96482.63;;;13.91;100.00
64610;BME280;51019;46.090;6.350;2022-10-15T08:36:40;96570.97;;;14.52;100.00
64610;BME280;51019;46.090;6.350;2022-10-15T08:39:07;96570.31;;;14.50;100.00
64610;BME280;51019;46.090;6.350;2022-10-15T08:41:37;96565.03;;;14.50;100.00
64610;BME280;51019;46.090;6.350;2022-10-15T08:44:12;96582.00;;;14.39;100.00
64610;BME280;51019;46.090;6.350;2022-10-15T08:46:45;96577.69;;;14.38;100.00
64610;BME280;51019;46.090;6.350;2022-10-15T08:49:27;96572.97;;;14.42;100.00
64610;BME280;51019;46.090;6.350;2022-10-15T08:52:05;96574.91;;;14.32;100.00
64610;BME280;51019;46.090;6.350;2022-10-15T08:54:35;96563.56;;;14.39;100.00
64610;BME280;51019;46.090;6.350;2022-10-15T08:57:15;96563.19;;;14.34;100.00
64610;BME280;51019;46.090;6.350;2022-10-15T08:59:48;96557.59;;;14.62;100.00
64610;BME280;51019;46.090;6.350;2022-10-15T09:02:22;96564.69;;;14.61;100.00
64610;BME280;51019;46.090;6.350;2022-10-15T09:04:54;96569.94;;;14.69;100.00
64610;BME280;51019;46.090;6.350;2022-10-15T09:07:32;96571.47;;;14.64;100.00
64610;BME280;51019;46.090;6.350;2022-10-15T09:10:13;96560.56;;;14.59;100.00
64610;BME280;51019;46.090;6.350;2022-10-15T09:12:52;96566.34;;;14.62;100.00
64610;BME280;51019;46.090;6.350;2022-10-15T09:15:27;96529.28;;;14.47;100.00
64610;BME280;51019;46.090;6.350;2022-10-15T09:17:59;96572.09;;;14.74;100.00
64610;BME280;51019;46.090;6.350;2022-10-15T09:20:33;96538.34;;;14.53;100.00
64610;BME280;51019;46.090;6.350;2022-10-15T09:23:07;96578.22;;;14.58;100.00
64610;BME280;51019;46.090;6.350;2022-10-15T09:25:41;96554.47;;;14.74;100.00
64610;BME280;51019;46.090;6.350;2022-10-15T09:28:16;96573.09;;;14.65;100.00
64610;BME280;51019;46.090;6.350;2022-10-15T09:30:51;96573.06;;;14.97;100.00
64610;BME280;51019;46.090;6.350;2022-10-15T09:33:29;96584.72;;;15.03;100.00
64610;BME280;51019;46.090;6.350;2022-10-15T09:36:10;96568.38;;;15.15;100.00
64610;BME280;51019;46.090;6.350;2022-10-15T09:38:52;96572.63;;;15.24;100.00
64610;BME280;51019;46.090;6.350;2022-10-15T09:41:33;96576.03;;;15.41;100.00
64610;BME280;51019;46.090;6.350;2022-10-15T09:44:10;96571.03;;;15.63;100.00
64610;BME280;51019;46.090;6.350;2022-10-15T09:46:43;96570.34;;;15.91;100.00
64610;BME280;51019;46.090;6.350;2022-10-15T09:49:14;96561.75;;;16.20;100.00
64610;BME280;51019;46.090;6.350;2022-10-15T09:51:47;96486.84;;;15.82;100.00
64610;BME280;51019;46.090;6.350;2022-10-15T09:54:25;96570.34;;;16.60;100.00
64610;BME280;51019;46.090;6.350;2022-10-15T09:56:56;96487.72;;;15.97;100.00
64610;BME280;51019;46.090;6.350;2022-10-15T09:59:24;96543.06;;;16.22;100.00
64610;BME280;51019;46.090;6.350;2022-10-15T10:02:00;96578.66;;;16.57;100.00
64610;BME280;51019;46.090;6.350;2022-10-15T10:04:30;96502.84;;;16.26;100.00
64610;BME280;51019;46.090;6.350;2022-10-15T10:07:01;96516.84;;;16.35;100.00
64610;BME280;51019;46.090;6.350;2022-10-15T10:09:33;96570.09;;;17.22;100.00
64610;BME280;51019;46.090;6.350;2022-10-15T10:12:05;96449.19;;;16.03;100.00
64610;BME280;51019;46.090;6.350;2022-10-15T10:14:43;96553.03;;;17.10;100.00
64610;BME280;51019;46.090;6.350;2022-10-15T10:17:16;96555.28;;;16.98;100.00
64610;BME280;51019;46.090;6.350;2022-10-15T10:19:46;96515.13;;;16.80;100.00
64610;BME280;51019;46.090;6.350;2022-10-15T10:22:28;96505.53;;;16.93;100.00
64610;BME280;51019;46.090;6.350;2022-10-15T10:24:58;96565.06;;;16.97;100.00
64610;BME280;51019;46.090;6.350;2022-10-15T10:27:28;96554.81;;;17.68;97.42
64610;BME280;51019;46.090;6.350;2022-10-15T10:30:00;96550.81;;;18.78;88.57
64610;BME280;51019;46.090;6.350;2022-10-15T10:32:32;96553.00;;;20.39;81.70
64610;BME280;51019;46.090;6.350;2022-10-15T10:35:01;96548.50;;;21.70;76.97
64610;BME280;51019;46.090;6.350;2022-10-15T10:37:40;96510.22;;;22.59;68.28
64610;BME280;51019;46.090;6.350;2022-10-15T10:40:23;96468.44;;;22.21;70.56
64610;BME280;51019;46.090;6.350;2022-10-15T10:43:15;96460.56;;;22.26;70.21
64610;BME280;51019;46.090;6.350;2022-10-15T10:45:55;96511.03;;;22.03;69.06
64610;BME280;51019;46.090;6.350;2022-10-15T10:48:27;96540.09;;;23.24;64.05
64610;BME280;51019;46.090;6.350;2022-10-15T10:51:11;96529.84;;;22.71;63.43
64610;BME280;51019;46.090;6.350;2022-10-15T10:53:46;96540.69;;;23.44;59.40
64610;BME280;51019;46.090;6.350;2022-10-15T10:56:21;96536.69;;;23.35;59.85
64610;BME280;51019;46.090;6.350;2022-10-15T10:58:56;96516.59;;;23.07;59.91
64610;BME280;51019;46.090;6.350;2022-10-15T11:01:27;96535.63;;;23.36;59.38
64610;BME280;51019;46.090;6.350;2022-10-15T11:03:57;96498.78;;;23.38;58.56
64610;BME280;51019;46.090;6.350;2022-10-15T11:06:43;96535.63;;;24.74;55.67
64610;BME280;51019;46.090;6.350;2022-10-15T11:09:41;96527.28;;;24.29;55.98
64610;BME280;51019;46.090;6.350;2022-10-15T11:12:33;96517.25;;;25.36;52.03
64610;BME280;51019;46.090;6.350;2022-10-15T11:15:17;96500.47;;;24.82;53.10
64610;BME280;51019;46.090;6.350;2022-10-15T11:17:53;96515.50;;;25.18;51.07
64610;BME280;51019;46.090;6.350;2022-10-15T11:20:29;96504.88;;;25.35;52.30
64610;BME280;51019;46.090;6.350;2022-10-15T11:23:09;96500.50;;;25.80;50.38
64610;BME280;51019;46.090;6.350;2022-10-15T11:25:45;96495.16;;;26.25;49.31
64610;BME280;51019;46.090;6.350;2022-10-15T11:28:44;96501.88;;;26.73;47.29
64610;BME280;51019;46.090;6.350;2022-10-15T11:31:21;96483.47;;;26.48;44.90
64610;BME280;51019;46.090;6.350;2022-10-15T11:34:03;96490.03;;;25.67;48.04
64610;BME280;51019;46.090;6.350;2022-10-15T11:36:52;96476.78;;;26.67;45.94
64610;BME280;51019;46.090;6.350;2022-10-15T11:39:42;96491.78;;;27.35;43.86
64610;BME280;51019;46.090;6.350;2022-10-15T11:42:16;96471.25;;;26.74;43.10
64610;BME280;51019;46.090;6.350;2022-10-15T11:47:53;96472.25;;;28.15;42.42
64610;BME280;51019;46.090;6.350;2022-10-15T11:50:28;96479.75;;;27.43;42.95
64610;BME280;51019;46.090;6.350;2022-10-15T11:53:06;96468.59;;;28.22;40.49
64610;BME280;51019;46.090;6.350;2022-10-15T11:55:41;96469.09;;;28.18;39.79
64610;BME280;51019;46.090;6.350;2022-10-15T11:58:18;96464.31;;;27.33;41.96
64610;BME280;51019;46.090;6.350;2022-10-15T12:00:54;96441.31;;;26.87;44.15
64610;BME280;51019;46.090;6.350;2022-10-15T12:03:28;96461.88;;;26.93;43.29
64610;BME280;51019;46.090;6.350;2022-10-15T12:06:00;96455.41;;;27.11;42.69
64610;BME280;51019;46.090;6.350;2022-10-15T12:08:34;96454.13;;;26.30;42.83
64610;BME280;51019;46.090;6.350;2022-10-15T12:11:19;96449.09;;;27.22;40.77
64610;BME280;51019;46.090;6.350;2022-10-15T12:13:54;96397.22;;;26.66;42.20
64610;BME280;51019;46.090;6.350;2022-10-15T12:16:27;96441.84;;;26.67;42.89
64610;BME280;51019;46.090;6.350;2022-10-15T12:19:03;96399.59;;;26.46;42.57
64610;BME280;51019;46.090;6.350;2022-10-15T12:21:37;96425.16;;;27.42;40.83
64610;BME280;51019;46.090;6.350;2022-10-15T12:27:15;96401.44;;;27.61;40.43
64610;BME280;51019;46.090;6.350;2022-10-15T12:29:49;96416.03;;;28.19;40.47
64610;BME280;51019;46.090;6.350;2022-10-15T12:32:21;96407.63;;;27.89;40.47
64610;BME280;51019;46.090;6.350;2022-10-15T12:34:56;96414.28;;;28.08;39.85
64610;BME280;51019;46.090;6.350;2022-10-15T12:37:33;96410.13;;;27.95;40.01
64610;BME280;51019;46.090;6.350;2022-10-15T12:40:05;96402.34;;;27.50;41.17
64610;BME280;51019;46.090;6.350;2022-10-15T12:42:49;96401.69;;;27.60;41.69
64610;BME280;51019;46.090;6.350;2022-10-15T12:45:22;96392.44;;;27.77;41.05
64610;BME280;51019;46.090;6.350;2022-10-15T12:47:55;96400.63;;;27.17;42.23
64610;BME280;51019;46.090;6.350;2022-10-15T12:50:43;96384.50;;;26.12;45.63
64610;BME280;51019;46.090;6.350;2022-10-15T12:53:29;96382.03;;;27.37;41.41
64610;BME280;51019;46.090;6.350;2022-10-15T12:56:19;96354.66;;;27.45;40.85
64610;BME280;51019;46.090;6.350;2022-10-15T12:58:50;96381.22;;;27.15;41.44
64610;BME280;51019;46.090;6.350;2022-10-15T13:01:28;96373.84;;;27.27;41.15
64610;BME280;51019;46.090;6.350;2022-10-15T13:04:00;96361.88;;;27.40;41.97
64610;BME280;51019;46.090;6.350;2022-10-15T13:09:43;96307.81;;;26.54;42.04
64610;BME280;51019;46.090;6.350;2022-10-15T13:12:21;96318.53;;;25.82;44.18
64610;BME280;51019;46.090;6.350;2022-10-15T13:14:54;96371.28;;;25.20;46.51
64610;BME280;51019;46.090;6.350;2022-10-15T13:17:24;96347.34;;;24.90;47.29
64610;BME280;51019;46.090;6.350;2022-10-15T13:19:55;96276.50;;;23.46;49.47
64610;BME280;51019;46.090;6.350;2022-10-15T13:22:24;96371.84;;;24.35;50.05
64610;BME280;51019;46.090;6.350;2022-10-15T13:24:57;96370.97;;;23.28;50.61
64610;BME280;51019;46.090;6.350;2022-10-15T13:27:29;96367.69;;;23.86;50.32
64610;BME280;51019;46.090;6.350;2022-10-15T13:29:59;96370.69;;;23.48;52.54